Tuesday, June 28, 2016
09:37 UTC
  |  Log In   |  Register Free
Airport Search:

Washington Dulles International Airport
(KIAD)

FAA data valid effective May 26 2016 - Jul 21 2016 (unless otherwise noted).

 
 
 
 
 
 
 
 
 
 
 
 
 
 
Summary: Washington Dulles International (IAD)

Weather Summary


METAR for KIAD is not available. Closest METAR is for KJYO
KIAD  (most recent observation was updatred at 28:08 UTC)
280852Z 18005KT 10SM OVC007 23/22 A2993 RMK AO2 SLP131 T02280217 56005

KJYO  (9.3 nm SE)   (most recent observation was updated at 28:09 UTC)
280915Z AUTO 21003KT 7SM BKN004 OVC060 23/23 A2993 RMK AO2

KHEF  (13.7 nm NE)   (most recent observation was updated at 28:09 UTC)
280915Z 00000KT 10SM FEW050 SCT080 BKN090 22/22 A2992 RMK AO1

TAF for KIAD is not available.
KIAD
AMD 280843Z 2809/2912 VRB03KT P6SM BKN009 OVC100 FM281300 VRB04KT P6SM SCT020 BKN150 FM281700 23006KT P6SM BKN070 FM282200 22008KT P6SM VCTS BKN040CB FM290300 30005KT P6SM SCT050

KDAA  (18.8 nm NW)   (most recent observation was updatred at 28:09 UTC)
280905Z 2809/2915 18009KT 9999 BKN010 OVC030 QNH2990INS TEMPO 2823/2902 21015G20KT 6000 -TSRA OVC015CB BECMG 2903/2904 30009KT 8000 -SHRA BKN020 OVC030 QNH2988INS BECMG 2906/2907 31009KT 9999 NSW SCT050 QNH2989INS TX28/2822Z TN21/2811Z


KDCA  (20.3 nm NW)   (most recent observation was updatred at 28:08 UTC)
AMD 280858Z 2809/2906 18008KT P6SM BKN007 OVC012 FM281400 18005KT P6SM SCT020 BKN060 FM281700 17009KT P6SM BKN050 FM282300 21006KT P6SM VCTS BKN050CB FM290500 29005KT P6SM BKN050
GlobalAir.com is loading additional information.
 Current Weather at IAD
73.0 F° (22.8 C°)
Mostly Cloudy
South winds at 5.8 mph
Pressure:
29.93 in
Humidity:
94%
Wind:
South at 5.8 MPH (5 KT)
Dew Point:
71.1 F° (21.7 C°)
Visibility:
10.00 mi
IAD NOAA Radar

Communications Summary


CTAFN/A
UNICOM122.95
ATIS134.85 (703-471-7127)
WX ASOS
DULLES GROUND121.9 (EAST)
132.45 (WEST) [24 Hours]
DULLES TOWER120.1 (RY 01R/19L)
120.25 (RY 01C/19C)
128.425 (RY 01L/19R)
128.425 (RYS 01L/19R 12/30)
134.425 (RY 01L/19R & RY 12/30) [24 Hours]
POTOMAC APPROACH120.45 (241-330)
124.65 (091-240)
126.1 (331-090)
POTOMAC DEPARTURE125.05 (300-120)
126.65 (121-299)
CLEARANCE DELIVERY135.7
CLASS B120.45 (241-330)
124.65 (091-240)
125.05 (300-120)
126.1 (331-090)
126.65 (121-299)
CLASS B IC120.45 (241-330)
125.05 (300-120)
EMERGENCY121.5
IC120.1 (RY 01R/19L)
120.25 (RY 01C/19C)
121.9 (EAST)
128.425 (RY 01L/19R)
128.425 (RYS 01L/19R 12/30)
132.45 (WEST)
134.425 (RY 01L/19R & RY 12/30)

Closest Alternate Airports with Instrument Procedures

43VA - Reston Hospital Center - 4.4 nm NE from IAD

KJYO - Leesburg Executive - 10.7 nm NW from IAD

KHEF - Manassas Regional/Harry P. Davis Field - 13.7 nm SW from IAD

HEF - Manassas Regional/Harry P. Davis Field - 13.7 nm SW from IAD

HEF - Manassas Regional/Harry P. Davis Field - 13.7 nm SW from IAD

HEF - Manassas Regional/Harry P. Davis Field - 13.7 nm SW from IAD

KHEF - Manassas Regional/Harry P. Davis Field - 15.8 nm SW from IAD

60MD - Walter Reed National Medical Center At Bet - 17.1 nm NE from IAD

VG93 - Fort Belvoir Community Hospital - 20.4 nm SE from IAD

KGAI - Montgomery County Airpark - 22 nm NE from IAD

Find All Airport Services Find A Hotel Find A Rental Car Find A Golf Course Find A Restaurant $100 Hamburger



FBO's on the Field
FBO Company Facility Photos Services Transportation Aviation Fuel Prices: Prices include tax
Catering Weather Repair Courtesy Rental Type 100LL JetA JetA+ MOGAS 8087
 
Landmark Aviation - IAD

Currently rated 5 by 1 person
FS:Shell
Last Updated: Jun-27
Login to update fuel prices
SS:
Contact Landmark Aviation - IADMore FBO Information
 
Signature Flight Support

Currently rated 5 by 1 person
FS:Independent
Last Updated: Jun-27
Login to update fuel prices
SS:
Contact Signature Flight SupportMore FBO Information
 
Add another FBO Facility Photos Catering Weather Repair Courtesy Rental Type 100LL JetA JetA+ MOGAS 8087
Services Transportation Aviation Fuel Prices: Prices include tax


model-print
model-print
model-print
model-print